sensor_id;sensor_type;location;lat;lon;timestamp;temperature;humidity
6518;DHT22;3292;48.944;9.240;2023-02-22T00:00:09;4.90;99.90
6518;DHT22;3292;48.944;9.240;2023-02-22T00:02:44;4.90;99.90
6518;DHT22;3292;48.944;9.240;2023-02-22T00:05:11;4.80;99.90
6518;DHT22;3292;48.944;9.240;2023-02-22T00:07:40;4.80;99.90
6518;DHT22;3292;48.944;9.240;2023-02-22T00:10:10;4.80;99.90
6518;DHT22;3292;48.944;9.240;2023-02-22T00:12:39;4.80;99.90
6518;DHT22;3292;48.944;9.240;2023-02-22T00:15:07;4.80;99.90
6518;DHT22;3292;48.944;9.240;2023-02-22T00:17:34;4.80;99.90
6518;DHT22;3292;48.944;9.240;2023-02-22T00:20:02;4.80;99.90
6518;DHT22;3292;48.944;9.240;2023-02-22T00:22:31;4.80;99.90
6518;DHT22;3292;48.944;9.240;2023-02-22T00:24:58;4.80;99.90
6518;DHT22;3292;48.944;9.240;2023-02-22T00:27:27;4.80;99.90
6518;DHT22;3292;48.944;9.240;2023-02-22T00:29:53;4.80;99.90
6518;DHT22;3292;48.944;9.240;2023-02-22T00:32:21;4.80;99.90
6518;DHT22;3292;48.944;9.240;2023-02-22T00:34:51;4.80;99.90
6518;DHT22;3292;48.944;9.240;2023-02-22T00:37:19;4.80;99.90
6518;DHT22;3292;48.944;9.240;2023-02-22T00:39:47;4.70;99.90
6518;DHT22;3292;48.944;9.240;2023-02-22T00:42:15;4.70;99.90
6518;DHT22;3292;48.944;9.240;2023-02-22T00:44:44;4.70;99.90
6518;DHT22;3292;48.944;9.240;2023-02-22T00:47:11;4.60;99.90
6518;DHT22;3292;48.944;9.240;2023-02-22T00:49:38;4.50;99.90
6518;DHT22;3292;48.944;9.240;2023-02-22T00:52:05;4.50;99.90
6518;DHT22;3292;48.944;9.240;2023-02-22T00:54:32;4.50;99.90
6518;DHT22;3292;48.944;9.240;2023-02-22T00:56:59;4.50;99.90
6518;DHT22;3292;48.944;9.240;2023-02-22T00:59:26;4.60;99.90
6518;DHT22;3292;48.944;9.240;2023-02-22T01:01:56;4.60;99.90
6518;DHT22;3292;48.944;9.240;2023-02-22T01:04:27;4.60;99.90
6518;DHT22;3292;48.944;9.240;2023-02-22T01:06:54;4.60;99.90
6518;DHT22;3292;48.944;9.240;2023-02-22T01:09:21;4.50;99.90
6518;DHT22;3292;48.944;9.240;2023-02-22T01:11:51;4.50;99.90
6518;DHT22;3292;48.944;9.240;2023-02-22T01:14:19;4.50;99.90
6518;DHT22;3292;48.944;9.240;2023-02-22T01:16:47;4.40;99.90
6518;DHT22;3292;48.944;9.240;2023-02-22T01:19:16;4.40;99.90
6518;DHT22;3292;48.944;9.240;2023-02-22T01:21:43;4.30;99.90
6518;DHT22;3292;48.944;9.240;2023-02-22T01:24:11;4.30;99.90
6518;DHT22;3292;48.944;9.240;2023-02-22T01:26:40;4.30;99.90
6518;DHT22;3292;48.944;9.240;2023-02-22T01:29:07;4.20;99.90
6518;DHT22;3292;48.944;9.240;2023-02-22T01:31:34;4.20;99.90
6518;DHT22;3292;48.944;9.240;2023-02-22T01:34:01;4.10;99.90
6518;DHT22;3292;48.944;9.240;2023-02-22T01:36:29;4.10;99.90
6518;DHT22;3292;48.944;9.240;2023-02-22T01:38:56;3.90;99.90
6518;DHT22;3292;48.944;9.240;2023-02-22T01:41:23;4.00;99.90
6518;DHT22;3292;48.944;9.240;2023-02-22T01:43:49;4.10;99.90
6518;DHT22;3292;48.944;9.240;2023-02-22T01:46:21;4.10;99.90
6518;DHT22;3292;48.944;9.240;2023-02-22T01:48:53;4.10;99.90
6518;DHT22;3292;48.944;9.240;2023-02-22T01:51:24;4.10;99.90
6518;DHT22;3292;48.944;9.240;2023-02-22T01:53:54;4.10;99.90
6518;DHT22;3292;48.944;9.240;2023-02-22T01:56:24;4.20;99.90
6518;DHT22;3292;48.944;9.240;2023-02-22T01:58:56;4.10;99.90
6518;DHT22;3292;48.944;9.240;2023-02-22T02:01:25;4.20;99.90
6518;DHT22;3292;48.944;9.240;2023-02-22T02:03:56;4.20;99.90
6518;DHT22;3292;48.944;9.240;2023-02-22T02:06:25;4.10;99.90
6518;DHT22;3292;48.944;9.240;2023-02-22T02:08:59;4.10;99.90
6518;DHT22;3292;48.944;9.240;2023-02-22T02:11:28;4.00;99.90
6518;DHT22;3292;48.944;9.240;2023-02-22T02:13:56;4.00;99.90
6518;DHT22;3292;48.944;9.240;2023-02-22T02:16:24;4.00;99.90
6518;DHT22;3292;48.944;9.240;2023-02-22T02:18:53;4.00;99.90
6518;DHT22;3292;48.944;9.240;2023-02-22T02:21:41;4.00;99.90
6518;DHT22;3292;48.944;9.240;2023-02-22T02:24:50;3.90;99.90
6518;DHT22;3292;48.944;9.240;2023-02-22T02:27:23;3.90;99.90
6518;DHT22;3292;48.944;9.240;2023-02-22T02:32:55;3.80;99.90
6518;DHT22;3292;48.944;9.240;2023-02-22T02:35:30;3.80;99.90
6518;DHT22;3292;48.944;9.240;2023-02-22T02:38:06;3.80;99.90
6518;DHT22;3292;48.944;9.240;2023-02-22T02:40:40;3.70;99.90
6518;DHT22;3292;48.944;9.240;2023-02-22T02:43:14;3.70;99.90
6518;DHT22;3292;48.944;9.240;2023-02-22T02:45:45;3.70;99.90
6518;DHT22;3292;48.944;9.240;2023-02-22T02:48:16;3.60;99.90
6518;DHT22;3292;48.944;9.240;2023-02-22T02:50:47;3.70;99.90
6518;DHT22;3292;48.944;9.240;2023-02-22T02:53:18;3.60;99.90
6518;DHT22;3292;48.944;9.240;2023-02-22T02:55:47;3.70;99.90
6518;DHT22;3292;48.944;9.240;2023-02-22T02:58:18;3.60;99.90
6518;DHT22;3292;48.944;9.240;2023-02-22T03:00:46;3.60;99.90
6518;DHT22;3292;48.944;9.240;2023-02-22T03:03:42;3.50;99.90
6518;DHT22;3292;48.944;9.240;2023-02-22T03:06:34;3.40;99.90
6518;DHT22;3292;48.944;9.240;2023-02-22T03:09:10;3.50;99.90
6518;DHT22;3292;48.944;9.240;2023-02-22T03:11:49;3.50;99.90
6518;DHT22;3292;48.944;9.240;2023-02-22T03:14:24;3.50;99.90
6518;DHT22;3292;48.944;9.240;2023-02-22T03:16:59;3.50;99.90
6518;DHT22;3292;48.944;9.240;2023-02-22T03:19:34;3.50;99.90
6518;DHT22;3292;48.944;9.240;2023-02-22T03:22:08;3.50;99.90
6518;DHT22;3292;48.944;9.240;2023-02-22T03:24:40;3.60;99.90
6518;DHT22;3292;48.944;9.240;2023-02-22T03:27:10;3.50;99.90
6518;DHT22;3292;48.944;9.240;2023-02-22T03:29:40;3.60;99.90
6518;DHT22;3292;48.944;9.240;2023-02-22T03:32:09;3.60;99.90
6518;DHT22;3292;48.944;9.240;2023-02-22T03:34:43;3.60;99.90
6518;DHT22;3292;48.944;9.240;2023-02-22T03:37:15;3.60;99.90
6518;DHT22;3292;48.944;9.240;2023-02-22T03:39:44;3.60;99.90
6518;DHT22;3292;48.944;9.240;2023-02-22T03:42:15;3.60;99.90
6518;DHT22;3292;48.944;9.240;2023-02-22T03:44:45;3.60;99.90
6518;DHT22;3292;48.944;9.240;2023-02-22T03:47:16;3.50;99.90
6518;DHT22;3292;48.944;9.240;2023-02-22T03:49:50;3.50;99.90
6518;DHT22;3292;48.944;9.240;2023-02-22T03:52:17;3.50;99.90
6518;DHT22;3292;48.944;9.240;2023-02-22T03:54:48;3.50;99.90
6518;DHT22;3292;48.944;9.240;2023-02-22T03:57:23;3.50;99.90
6518;DHT22;3292;48.944;9.240;2023-02-22T03:59:51;3.50;99.90
6518;DHT22;3292;48.944;9.240;2023-02-22T04:02:18;3.50;99.90
6518;DHT22;3292;48.944;9.240;2023-02-22T04:04:47;3.50;99.90
6518;DHT22;3292;48.944;9.240;2023-02-22T04:07:14;3.50;99.90
6518;DHT22;3292;48.944;9.240;2023-02-22T04:09:40;3.50;99.90
6518;DHT22;3292;48.944;9.240;2023-02-22T04:12:07;3.40;99.90
6518;DHT22;3292;48.944;9.240;2023-02-22T04:14:34;3.50;99.90
6518;DHT22;3292;48.944;9.240;2023-02-22T04:17:01;3.50;99.90
6518;DHT22;3292;48.944;9.240;2023-02-22T04:19:28;3.50;99.90
6518;DHT22;3292;48.944;9.240;2023-02-22T04:21:56;3.50;99.90
6518;DHT22;3292;48.944;9.240;2023-02-22T04:24:23;3.60;99.90
6518;DHT22;3292;48.944;9.240;2023-02-22T04:26:49;3.60;99.90
6518;DHT22;3292;48.944;9.240;2023-02-22T04:29:16;3.60;99.90
6518;DHT22;3292;48.944;9.240;2023-02-22T04:31:43;3.60;99.90
6518;DHT22;3292;48.944;9.240;2023-02-22T04:34:10;3.60;99.90
6518;DHT22;3292;48.944;9.240;2023-02-22T04:36:36;3.60;99.90
6518;DHT22;3292;48.944;9.240;2023-02-22T04:39:05;3.60;99.90
6518;DHT22;3292;48.944;9.240;2023-02-22T04:41:31;3.60;99.90
6518;DHT22;3292;48.944;9.240;2023-02-22T04:43:58;3.60;99.90
6518;DHT22;3292;48.944;9.240;2023-02-22T04:46:25;3.60;99.90
6518;DHT22;3292;48.944;9.240;2023-02-22T04:48:52;3.50;99.90
6518;DHT22;3292;48.944;9.240;2023-02-22T04:51:19;3.60;99.90
6518;DHT22;3292;48.944;9.240;2023-02-22T04:53:46;3.60;99.90
6518;DHT22;3292;48.944;9.240;2023-02-22T04:56:16;3.60;99.90
6518;DHT22;3292;48.944;9.240;2023-02-22T04:58:43;3.60;99.90
6518;DHT22;3292;48.944;9.240;2023-02-22T05:01:10;3.60;99.90
6518;DHT22;3292;48.944;9.240;2023-02-22T05:03:37;3.60;99.90
6518;DHT22;3292;48.944;9.240;2023-02-22T05:06:04;3.60;99.90
6518;DHT22;3292;48.944;9.240;2023-02-22T05:08:31;3.60;99.90
6518;DHT22;3292;48.944;9.240;2023-02-22T05:10:57;3.60;99.90
6518;DHT22;3292;48.944;9.240;2023-02-22T05:13:26;3.60;99.90
6518;DHT22;3292;48.944;9.240;2023-02-22T05:15:52;3.60;99.90
6518;DHT22;3292;48.944;9.240;2023-02-22T05:18:19;3.60;99.90
6518;DHT22;3292;48.944;9.240;2023-02-22T05:20:46;3.60;99.90
6518;DHT22;3292;48.944;9.240;2023-02-22T05:23:13;3.60;99.90
6518;DHT22;3292;48.944;9.240;2023-02-22T05:25:41;3.60;99.90
6518;DHT22;3292;48.944;9.240;2023-02-22T05:28:11;3.60;99.90
6518;DHT22;3292;48.944;9.240;2023-02-22T05:30:41;3.60;99.90
6518;DHT22;3292;48.944;9.240;2023-02-22T05:33:09;3.60;99.90
6518;DHT22;3292;48.944;9.240;2023-02-22T05:35:40;3.60;99.90
6518;DHT22;3292;48.944;9.240;2023-02-22T05:38:07;3.60;99.90
6518;DHT22;3292;48.944;9.240;2023-02-22T05:40:34;3.60;99.90
6518;DHT22;3292;48.944;9.240;2023-02-22T05:43:01;3.60;99.90
6518;DHT22;3292;48.944;9.240;2023-02-22T05:45:28;3.60;99.90
6518;DHT22;3292;48.944;9.240;2023-02-22T05:47:59;3.50;99.90
6518;DHT22;3292;48.944;9.240;2023-02-22T05:50:27;3.50;99.90
6518;DHT22;3292;48.944;9.240;2023-02-22T05:52:54;3.40;99.90
6518;DHT22;3292;48.944;9.240;2023-02-22T05:55:22;3.40;99.90
6518;DHT22;3292;48.944;9.240;2023-02-22T05:57:52;3.40;99.90
6518;DHT22;3292;48.944;9.240;2023-02-22T06:00:26;3.40;99.90
6518;DHT22;3292;48.944;9.240;2023-02-22T06:02:54;3.40;99.90
6518;DHT22;3292;48.944;9.240;2023-02-22T06:05:23;3.40;99.90
6518;DHT22;3292;48.944;9.240;2023-02-22T06:07:49;3.40;99.90
6518;DHT22;3292;48.944;9.240;2023-02-22T06:10:17;3.30;99.90
6518;DHT22;3292;48.944;9.240;2023-02-22T06:12:45;3.30;99.90
6518;DHT22;3292;48.944;9.240;2023-02-22T06:15:14;3.30;99.90
6518;DHT22;3292;48.944;9.240;2023-02-22T06:17:42;3.30;99.90
6518;DHT22;3292;48.944;9.240;2023-02-22T06:20:10;3.20;99.90
6518;DHT22;3292;48.944;9.240;2023-02-22T06:22:41;3.40;99.90
6518;DHT22;3292;48.944;9.240;2023-02-22T06:25:08;3.40;99.90
6518;DHT22;3292;48.944;9.240;2023-02-22T06:27:36;3.40;99.90
6518;DHT22;3292;48.944;9.240;2023-02-22T06:30:06;3.30;99.90
6518;DHT22;3292;48.944;9.240;2023-02-22T06:32:42;3.30;99.90
6518;DHT22;3292;48.944;9.240;2023-02-22T06:35:11;3.30;99.90
6518;DHT22;3292;48.944;9.240;2023-02-22T06:37:40;3.30;99.90
6518;DHT22;3292;48.944;9.240;2023-02-22T06:40:08;3.30;99.90
6518;DHT22;3292;48.944;9.240;2023-02-22T06:42:36;3.30;99.90
6518;DHT22;3292;48.944;9.240;2023-02-22T06:45:04;3.30;99.90
6518;DHT22;3292;48.944;9.240;2023-02-22T06:47:31;3.40;99.90
6518;DHT22;3292;48.944;9.240;2023-02-22T06:50:00;3.40;99.90
6518;DHT22;3292;48.944;9.240;2023-02-22T06:52:27;3.40;99.90
6518;DHT22;3292;48.944;9.240;2023-02-22T06:54:55;3.50;99.90
6518;DHT22;3292;48.944;9.240;2023-02-22T06:57:21;3.50;99.90
6518;DHT22;3292;48.944;9.240;2023-02-22T06:59:49;3.60;99.90
6518;DHT22;3292;48.944;9.240;2023-02-22T07:02:16;3.60;99.90
6518;DHT22;3292;48.944;9.240;2023-02-22T07:04:44;3.70;99.90
6518;DHT22;3292;48.944;9.240;2023-02-22T07:07:11;3.70;99.90
6518;DHT22;3292;48.944;9.240;2023-02-22T07:09:37;3.80;99.90
6518;DHT22;3292;48.944;9.240;2023-02-22T07:12:08;3.80;99.90
6518;DHT22;3292;48.944;9.240;2023-02-22T07:14:35;3.90;99.90
6518;DHT22;3292;48.944;9.240;2023-02-22T07:17:01;4.00;99.90
6518;DHT22;3292;48.944;9.240;2023-02-22T07:19:28;4.10;99.90
6518;DHT22;3292;48.944;9.240;2023-02-22T07:21:55;4.20;99.90
6518;DHT22;3292;48.944;9.240;2023-02-22T07:24:24;4.20;99.90
6518;DHT22;3292;48.944;9.240;2023-02-22T07:26:52;4.30;99.90
6518;DHT22;3292;48.944;9.240;2023-02-22T07:29:20;4.50;99.90
6518;DHT22;3292;48.944;9.240;2023-02-22T07:31:48;4.60;99.90
6518;DHT22;3292;48.944;9.240;2023-02-22T07:34:14;4.60;99.90
6518;DHT22;3292;48.944;9.240;2023-02-22T07:36:41;4.70;99.90
6518;DHT22;3292;48.944;9.240;2023-02-22T07:39:08;4.80;99.90
6518;DHT22;3292;48.944;9.240;2023-02-22T07:41:35;4.90;99.90
6518;DHT22;3292;48.944;9.240;2023-02-22T07:44:02;5.00;99.90
6518;DHT22;3292;48.944;9.240;2023-02-22T07:46:30;5.10;99.90
6518;DHT22;3292;48.944;9.240;2023-02-22T07:48:58;5.30;99.90
6518;DHT22;3292;48.944;9.240;2023-02-22T07:51:25;5.30;99.90
6518;DHT22;3292;48.944;9.240;2023-02-22T07:53:52;5.40;99.90
6518;DHT22;3292;48.944;9.240;2023-02-22T07:56:18;5.50;99.90
6518;DHT22;3292;48.944;9.240;2023-02-22T07:58:45;5.50;99.90
6518;DHT22;3292;48.944;9.240;2023-02-22T08:01:12;5.70;99.90
6518;DHT22;3292;48.944;9.240;2023-02-22T08:03:40;5.80;99.90
6518;DHT22;3292;48.944;9.240;2023-02-22T08:06:08;5.90;99.90
6518;DHT22;3292;48.944;9.240;2023-02-22T08:08:35;5.80;99.90
6518;DHT22;3292;48.944;9.240;2023-02-22T08:11:02;5.80;99.90
6518;DHT22;3292;48.944;9.240;2023-02-22T08:13:28;6.10;99.90
6518;DHT22;3292;48.944;9.240;2023-02-22T08:15:55;6.30;99.90
6518;DHT22;3292;48.944;9.240;2023-02-22T08:18:23;6.20;99.90
6518;DHT22;3292;48.944;9.240;2023-02-22T08:20:52;6.20;99.90
6518;DHT22;3292;48.944;9.240;2023-02-22T08:23:20;6.10;99.90
6518;DHT22;3292;48.944;9.240;2023-02-22T08:25:48;6.20;99.90
6518;DHT22;3292;48.944;9.240;2023-02-22T08:28:17;6.10;99.90
6518;DHT22;3292;48.944;9.240;2023-02-22T08:30:44;6.30;99.90
6518;DHT22;3292;48.944;9.240;2023-02-22T08:33:13;6.60;99.90
6518;DHT22;3292;48.944;9.240;2023-02-22T08:35:41;6.60;99.90
6518;DHT22;3292;48.944;9.240;2023-02-22T08:38:15;6.40;99.90
6518;DHT22;3292;48.944;9.240;2023-02-22T08:40:43;6.30;99.90
6518;DHT22;3292;48.944;9.240;2023-02-22T08:43:10;6.40;99.90
6518;DHT22;3292;48.944;9.240;2023-02-22T08:45:37;6.60;99.90
6518;DHT22;3292;48.944;9.240;2023-02-22T08:48:05;6.90;99.90
6518;DHT22;3292;48.944;9.240;2023-02-22T08:50:32;7.30;99.90
6518;DHT22;3292;48.944;9.240;2023-02-22T08:53:02;7.50;99.90
6518;DHT22;3292;48.944;9.240;2023-02-22T08:55:32;7.70;99.90
6518;DHT22;3292;48.944;9.240;2023-02-22T08:57:59;8.00;99.90
6518;DHT22;3292;48.944;9.240;2023-02-22T09:00:28;8.00;99.90
6518;DHT22;3292;48.944;9.240;2023-02-22T09:02:57;8.30;99.90
6518;DHT22;3292;48.944;9.240;2023-02-22T09:05:24;8.40;99.90
6518;DHT22;3292;48.944;9.240;2023-02-22T09:07:51;8.70;99.90
6518;DHT22;3292;48.944;9.240;2023-02-22T09:10:20;9.00;99.90
6518;DHT22;3292;48.944;9.240;2023-02-22T09:12:50;9.20;99.90
6518;DHT22;3292;48.944;9.240;2023-02-22T09:15:17;9.40;99.90
6518;DHT22;3292;48.944;9.240;2023-02-22T09:17:44;9.70;99.90
6518;DHT22;3292;48.944;9.240;2023-02-22T09:20:11;9.80;99.90
6518;DHT22;3292;48.944;9.240;2023-02-22T09:22:39;9.80;99.90
6518;DHT22;3292;48.944;9.240;2023-02-22T09:25:06;9.90;99.90
6518;DHT22;3292;48.944;9.240;2023-02-22T09:27:33;10.20;99.90
6518;DHT22;3292;48.944;9.240;2023-02-22T09:30:01;10.50;99.90
6518;DHT22;3292;48.944;9.240;2023-02-22T09:32:28;10.80;99.90
6518;DHT22;3292;48.944;9.240;2023-02-22T09:34:55;10.90;99.90
6518;DHT22;3292;48.944;9.240;2023-02-22T09:37:22;11.00;99.90
6518;DHT22;3292;48.944;9.240;2023-02-22T09:39:49;11.20;99.90
6518;DHT22;3292;48.944;9.240;2023-02-22T09:42:23;10.90;99.90
6518;DHT22;3292;48.944;9.240;2023-02-22T09:44:58;10.90;99.90
6518;DHT22;3292;48.944;9.240;2023-02-22T09:47:37;10.70;99.90
6518;DHT22;3292;48.944;9.240;2023-02-22T09:50:07;10.70;99.90
6518;DHT22;3292;48.944;9.240;2023-02-22T09:52:46;10.90;99.90
6518;DHT22;3292;48.944;9.240;2023-02-22T09:55:25;10.90;99.90
6518;DHT22;3292;48.944;9.240;2023-02-22T09:57:56;11.00;99.90
6518;DHT22;3292;48.944;9.240;2023-02-22T10:00:28;11.30;99.90
6518;DHT22;3292;48.944;9.240;2023-02-22T10:03:07;11.50;99.90
6518;DHT22;3292;48.944;9.240;2023-02-22T10:05:40;11.60;99.90
6518;DHT22;3292;48.944;9.240;2023-02-22T10:08:11;11.60;99.90
6518;DHT22;3292;48.944;9.240;2023-02-22T10:10:41;11.70;99.90
6518;DHT22;3292;48.944;9.240;2023-02-22T10:13:17;11.80;99.90
6518;DHT22;3292;48.944;9.240;2023-02-22T10:15:55;12.10;99.90
6518;DHT22;3292;48.944;9.240;2023-02-22T10:21:40;12.40;99.90
6518;DHT22;3292;48.944;9.240;2023-02-22T10:24:19;12.50;99.90
6518;DHT22;3292;48.944;9.240;2023-02-22T10:26:51;12.70;99.90
6518;DHT22;3292;48.944;9.240;2023-02-22T10:29:26;12.90;99.90
6518;DHT22;3292;48.944;9.240;2023-02-22T10:31:57;12.90;99.90
6518;DHT22;3292;48.944;9.240;2023-02-22T10:34:29;12.80;99.90
6518;DHT22;3292;48.944;9.240;2023-02-22T10:36:59;13.10;99.90
6518;DHT22;3292;48.944;9.240;2023-02-22T10:39:30;13.00;99.90
6518;DHT22;3292;48.944;9.240;2023-02-22T10:42:01;13.10;99.90
6518;DHT22;3292;48.944;9.240;2023-02-22T10:44:31;13.20;99.90
6518;DHT22;3292;48.944;9.240;2023-02-22T10:46:58;13.30;99.90
6518;DHT22;3292;48.944;9.240;2023-02-22T10:49:33;13.40;99.90
6518;DHT22;3292;48.944;9.240;2023-02-22T10:52:05;13.50;99.90
6518;DHT22;3292;48.944;9.240;2023-02-22T10:54:39;13.40;99.90
6518;DHT22;3292;48.944;9.240;2023-02-22T10:57:06;13.30;99.90
6518;DHT22;3292;48.944;9.240;2023-02-22T10:59:36;13.20;99.90
6518;DHT22;3292;48.944;9.240;2023-02-22T11:02:12;12.90;99.90
6518;DHT22;3292;48.944;9.240;2023-02-22T11:04:48;13.10;99.90
6518;DHT22;3292;48.944;9.240;2023-02-22T11:07:20;13.30;99.90
6518;DHT22;3292;48.944;9.240;2023-02-22T11:09:50;13.50;99.90
6518;DHT22;3292;48.944;9.240;2023-02-22T11:12:20;13.50;99.90
6518;DHT22;3292;48.944;9.240;2023-02-22T11:14:47;13.40;99.90
6518;DHT22;3292;48.944;9.240;2023-02-22T11:17:21;13.30;99.90
6518;DHT22;3292;48.944;9.240;2023-02-22T11:19:51;13.10;99.90
6518;DHT22;3292;48.944;9.240;2023-02-22T11:22:22;13.00;99.90
6518;DHT22;3292;48.944;9.240;2023-02-22T11:24:52;12.90;99.90
6518;DHT22;3292;48.944;9.240;2023-02-22T11:27:30;12.90;99.90
6518;DHT22;3292;48.944;9.240;2023-02-22T11:30:15;12.80;99.90
6518;DHT22;3292;48.944;9.240;2023-02-22T11:32:47;12.70;99.90
6518;DHT22;3292;48.944;9.240;2023-02-22T11:35:31;12.80;99.90
6518;DHT22;3292;48.944;9.240;2023-02-22T11:38:10;13.00;99.90
6518;DHT22;3292;48.944;9.240;2023-02-22T11:40:37;12.90;99.90
6518;DHT22;3292;48.944;9.240;2023-02-22T11:43:11;13.00;99.90
6518;DHT22;3292;48.944;9.240;2023-02-22T11:45:56;13.20;99.90
6518;DHT22;3292;48.944;9.240;2023-02-22T11:48:27;13.30;99.90
6518;DHT22;3292;48.944;9.240;2023-02-22T11:51:05;13.20;99.90
6518;DHT22;3292;48.944;9.240;2023-02-22T11:53:46;13.40;99.90
6518;DHT22;3292;48.944;9.240;2023-02-22T11:56:21;13.50;99.90
6518;DHT22;3292;48.944;9.240;2023-02-22T11:58:55;13.70;99.90
6518;DHT22;3292;48.944;9.240;2023-02-22T12:01:34;13.90;99.90
6518;DHT22;3292;48.944;9.240;2023-02-22T12:04:38;14.10;99.90
6518;DHT22;3292;48.944;9.240;2023-02-22T12:07:22;14.10;99.90
6518;DHT22;3292;48.944;9.240;2023-02-22T12:09:56;14.00;99.90
6518;DHT22;3292;48.944;9.240;2023-02-22T12:12:33;14.00;99.90
6518;DHT22;3292;48.944;9.240;2023-02-22T12:15:09;14.00;99.90
6518;DHT22;3292;48.944;9.240;2023-02-22T12:17:48;14.20;99.90
6518;DHT22;3292;48.944;9.240;2023-02-22T12:20:20;14.20;99.90
6518;DHT22;3292;48.944;9.240;2023-02-22T12:22:57;14.20;99.90
6518;DHT22;3292;48.944;9.240;2023-02-22T12:25:29;14.40;99.90
6518;DHT22;3292;48.944;9.240;2023-02-22T12:28:01;14.60;99.90
6518;DHT22;3292;48.944;9.240;2023-02-22T12:30:32;14.80;99.90
6518;DHT22;3292;48.944;9.240;2023-02-22T12:33:05;14.80;99.90
6518;DHT22;3292;48.944;9.240;2023-02-22T12:35:39;14.80;99.90
6518;DHT22;3292;48.944;9.240;2023-02-22T12:38:13;14.70;99.90
6518;DHT22;3292;48.944;9.240;2023-02-22T12:40:51;14.60;99.90
6518;DHT22;3292;48.944;9.240;2023-02-22T12:43:24;14.30;99.90
6518;DHT22;3292;48.944;9.240;2023-02-22T12:46:03;14.20;99.90
6518;DHT22;3292;48.944;9.240;2023-02-22T12:51:16;13.90;99.90
6518;DHT22;3292;48.944;9.240;2023-02-22T12:53:55;13.90;99.90
6518;DHT22;3292;48.944;9.240;2023-02-22T12:56:30;13.90;99.90
6518;DHT22;3292;48.944;9.240;2023-02-22T12:59:02;14.00;99.90
6518;DHT22;3292;48.944;9.240;2023-02-22T13:01:36;14.00;99.90
6518;DHT22;3292;48.944;9.240;2023-02-22T13:04:04;14.10;99.90
6518;DHT22;3292;48.944;9.240;2023-02-22T13:06:44;14.20;99.90
6518;DHT22;3292;48.944;9.240;2023-02-22T13:10:05;14.40;99.90
6518;DHT22;3292;48.944;9.240;2023-02-22T13:12:41;14.40;99.90
6518;DHT22;3292;48.944;9.240;2023-02-22T13:15:17;14.50;99.90
6518;DHT22;3292;48.944;9.240;2023-02-22T13:17:53;14.70;99.90
6518;DHT22;3292;48.944;9.240;2023-02-22T13:20:26;14.80;99.90
6518;DHT22;3292;48.944;9.240;2023-02-22T13:22:59;15.10;99.90
6518;DHT22;3292;48.944;9.240;2023-02-22T13:25:38;15.10;99.90
6518;DHT22;3292;48.944;9.240;2023-02-22T13:28:18;15.00;99.90
6518;DHT22;3292;48.944;9.240;2023-02-22T13:30:53;15.00;99.90
6518;DHT22;3292;48.944;9.240;2023-02-22T13:33:39;14.90;99.90
6518;DHT22;3292;48.944;9.240;2023-02-22T13:36:33;14.80;99.90
6518;DHT22;3292;48.944;9.240;2023-02-22T13:39:29;14.90;99.90
6518;DHT22;3292;48.944;9.240;2023-02-22T13:42:24;14.90;99.90
6518;DHT22;3292;48.944;9.240;2023-02-22T13:45:26;14.80;99.90
6518;DHT22;3292;48.944;9.240;2023-02-22T13:48:12;14.90;99.90
6518;DHT22;3292;48.944;9.240;2023-02-22T13:50:54;15.10;99.90
6518;DHT22;3292;48.944;9.240;2023-02-22T13:53:30;15.20;99.90
6518;DHT22;3292;48.944;9.240;2023-02-22T13:56:00;15.20;99.90
6518;DHT22;3292;48.944;9.240;2023-02-22T13:58:28;15.20;99.90
6518;DHT22;3292;48.944;9.240;2023-02-22T14:00:56;15.20;99.90
6518;DHT22;3292;48.944;9.240;2023-02-22T14:03:32;15.10;99.90
6518;DHT22;3292;48.944;9.240;2023-02-22T14:06:02;15.10;99.90
6518;DHT22;3292;48.944;9.240;2023-02-22T14:08:45;15.10;99.90
6518;DHT22;3292;48.944;9.240;2023-02-22T14:14:23;14.90;99.90
6518;DHT22;3292;48.944;9.240;2023-02-22T14:17:16;14.90;99.90
6518;DHT22;3292;48.944;9.240;2023-02-22T14:20:17;14.80;99.90
6518;DHT22;3292;48.944;9.240;2023-02-22T14:22:49;14.60;99.90
6518;DHT22;3292;48.944;9.240;2023-02-22T14:25:35;14.50;99.90
6518;DHT22;3292;48.944;9.240;2023-02-22T14:28:06;14.40;99.90
6518;DHT22;3292;48.944;9.240;2023-02-22T14:30:36;14.30;99.90
6518;DHT22;3292;48.944;9.240;2023-02-22T14:36:13;14.10;99.90
6518;DHT22;3292;48.944;9.240;2023-02-22T14:38:42;14.10;99.90
6518;DHT22;3292;48.944;9.240;2023-02-22T14:41:11;14.00;99.90
6518;DHT22;3292;48.944;9.240;2023-02-22T14:43:39;13.80;99.90
6518;DHT22;3292;48.944;9.240;2023-02-22T14:46:13;13.80;99.90
6518;DHT22;3292;48.944;9.240;2023-02-22T14:48:46;13.80;99.90
6518;DHT22;3292;48.944;9.240;2023-02-22T14:51:18;13.70;99.90
6518;DHT22;3292;48.944;9.240;2023-02-22T14:53:49;13.70;99.90
6518;DHT22;3292;48.944;9.240;2023-02-22T14:56:21;13.60;99.90
6518;DHT22;3292;48.944;9.240;2023-02-22T14:58:51;13.50;99.90
6518;DHT22;3292;48.944;9.240;2023-02-22T15:01:27;13.50;99.90
6518;DHT22;3292;48.944;9.240;2023-02-22T15:03:55;13.50;99.90
6518;DHT22;3292;48.944;9.240;2023-02-22T15:06:25;13.50;99.90
6518;DHT22;3292;48.944;9.240;2023-02-22T15:09:10;13.50;99.90
6518;DHT22;3292;48.944;9.240;2023-02-22T15:11:38;13.50;99.90
6518;DHT22;3292;48.944;9.240;2023-02-22T15:14:15;13.50;99.90
6518;DHT22;3292;48.944;9.240;2023-02-22T15:16:48;13.50;99.90
6518;DHT22;3292;48.944;9.240;2023-02-22T15:19:21;13.50;99.90
6518;DHT22;3292;48.944;9.240;2023-02-22T15:21:52;13.60;99.90
6518;DHT22;3292;48.944;9.240;2023-02-22T15:24:25;13.70;99.90
6518;DHT22;3292;48.944;9.240;2023-02-22T15:26:58;13.70;99.90
6518;DHT22;3292;48.944;9.240;2023-02-22T15:29:33;13.60;99.90
6518;DHT22;3292;48.944;9.240;2023-02-22T15:32:17;13.50;99.90
6518;DHT22;3292;48.944;9.240;2023-02-22T15:34:45;13.50;99.90
6518;DHT22;3292;48.944;9.240;2023-02-22T15:37:19;13.50;99.90
6518;DHT22;3292;48.944;9.240;2023-02-22T15:39:50;13.40;99.90
6518;DHT22;3292;48.944;9.240;2023-02-22T15:42:27;13.40;99.90
6518;DHT22;3292;48.944;9.240;2023-02-22T15:44:55;13.40;99.90
6518;DHT22;3292;48.944;9.240;2023-02-22T15:47:25;13.40;99.90
6518;DHT22;3292;48.944;9.240;2023-02-22T15:50:12;13.30;99.90
6518;DHT22;3292;48.944;9.240;2023-02-22T15:52:46;13.30;99.90
6518;DHT22;3292;48.944;9.240;2023-02-22T15:55:19;13.30;99.90
6518;DHT22;3292;48.944;9.240;2023-02-22T15:57:50;13.20;99.90
6518;DHT22;3292;48.944;9.240;2023-02-22T16:00:22;13.20;99.90
6518;DHT22;3292;48.944;9.240;2023-02-22T16:02:51;13.10;99.90
6518;DHT22;3292;48.944;9.240;2023-02-22T16:05:31;13.10;99.90
6518;DHT22;3292;48.944;9.240;2023-02-22T16:08:00;13.00;99.90
6518;DHT22;3292;48.944;9.240;2023-02-22T16:10:30;13.00;99.90
6518;DHT22;3292;48.944;9.240;2023-02-22T16:13:18;13.00;99.90
6518;DHT22;3292;48.944;9.240;2023-02-22T16:15:53;12.90;99.90
6518;DHT22;3292;48.944;9.240;2023-02-22T16:18:27;12.80;99.90
6518;DHT22;3292;48.944;9.240;2023-02-22T16:21:07;12.80;99.90
6518;DHT22;3292;48.944;9.240;2023-02-22T16:23:45;12.80;99.90
6518;DHT22;3292;48.944;9.240;2023-02-22T16:26:25;12.70;99.90
6518;DHT22;3292;48.944;9.240;2023-02-22T16:28:54;12.70;99.90
6518;DHT22;3292;48.944;9.240;2023-02-22T16:31:23;12.70;99.90
6518;DHT22;3292;48.944;9.240;2023-02-22T16:33:53;12.60;99.90
6518;DHT22;3292;48.944;9.240;2023-02-22T16:36:23;12.50;99.90
6518;DHT22;3292;48.944;9.240;2023-02-22T16:38:50;12.50;99.90
6518;DHT22;3292;48.944;9.240;2023-02-22T16:41:18;12.50;99.90
6518;DHT22;3292;48.944;9.240;2023-02-22T16:43:47;12.40;99.90
6518;DHT22;3292;48.944;9.240;2023-02-22T16:46:17;12.40;99.90
6518;DHT22;3292;48.944;9.240;2023-02-22T16:48:45;12.40;99.90
6518;DHT22;3292;48.944;9.240;2023-02-22T16:51:21;12.30;99.90
6518;DHT22;3292;48.944;9.240;2023-02-22T16:53:49;12.30;99.90